Fin-ally — WDG3773 — position and weather

sailwx.info

Track history (hours):
 
Tides and Currents Weather Stations Pressure Air Temp Water Temp Dewpoint Dewpoint Depression Visibility Wind Speed Wind Dir Waves Ship Positions

Fin-ally

Owner: Siegel, Andrew, Newtown, CT. More information available from US FCC via Universal Licensing System and Coast Guard Vessel Documentation Center.

Last reported at 2014-Sep-30 17:33 UTC. Time now 2014-Oct-01 08:14 UTC.
Position N 41°20' W 072°11'.

Type: Pleasure craft. MMSI: 367529510.

Date/timePositionNaut miles runAvg speedWind from/ knotsBaromVisibWave heightAir tempDewpointWater temp
2014-Sep-30 17:33N 41°20' W 072°11'3 3.4
2014-Sep-30 16:33N 41°17' W 072°09'2424.1
2014-Sep-30 15:33N 40°58' W 071°48'2222.0
2014-Sep-30 14:33N 40°37' W 071°39'2222.0
2014-Sep-30 13:33N 40°17' W 071°29'2220.2
2014-Sep-30 12:29N 39°56' W 071°21'1 0.4
2014-Sep-30 09:20N 39°57' W 071°19'1 0.7
2014-Sep-30 08:29N 39°57' W 071°19'1 0.6
2014-Sep-30 07:17N 39°58' W 071°19'0 0.5
2014-Sep-30 06:33N 39°58' W 071°19'1 1.4
2014-Sep-30 05:32N 39°58' W 071°17'1 0.5
2014-Sep-30 04:26N 39°58' W 071°18'1 0.6
2014-Sep-30 03:32N 39°58' W 071°18'0 0.5
2014-Sep-30 02:32N 39°58' W 071°18'1 0.8
2014-Sep-30 01:26N 39°59' W 071°17'1 0.8
2014-Sep-30 00:29N 39°59' W 071°18'1 0.7
2014-Sep-29 23:32N 39°58' W 071°19'0 0.4
2014-Sep-29 22:31N 39°59' W 071°19'1312.9
2014-Sep-29 21:29N 40°11' W 071°25'2526.9
2014-Sep-29 20:33N 40°35' W 071°37'2726.6
2014-Sep-29 19:33N 40°60' W 071°49'2625.7
2014-Sep-29 18:33N 41°19' W 072°11'  
2014-Sep-25 00:29N 41°20' W 072°11'  
Track history (hours):
 
Tides and Currents Weather Stations Pressure Air Temp Water Temp Dewpoint Dewpoint Depression Visibility Wind Speed Wind Dir Waves Ship Positions

Fin-ally

Owner: Siegel, Andrew, Newtown, CT. More information available from US FCC via Universal Licensing System and Coast Guard Vessel Documentation Center.

Last reported at 2014-Sep-30 17:33 UTC. Time now 2014-Oct-01 08:14 UTC.
Position N 41°20' W 072°11'.

Type: Pleasure craft. MMSI: 367529510.

Date/timePositionNaut miles runAvg speedWind from/ knotsBaromVisibWave heightAir tempDewpointWater temp
2014-Sep-30 17:33N 41°20' W 072°11'3 3.4
2014-Sep-30 16:33N 41°17' W 072°09'2424.1
2014-Sep-30 15:33N 40°58' W 071°48'2222.0
2014-Sep-30 14:33N 40°37' W 071°39'2222.0
2014-Sep-30 13:33N 40°17' W 071°29'2220.2
2014-Sep-30 12:29N 39°56' W 071°21'1 0.4
2014-Sep-30 09:20N 39°57' W 071°19'1 0.7
2014-Sep-30 08:29N 39°57' W 071°19'1 0.6
2014-Sep-30 07:17N 39°58' W 071°19'0 0.5
2014-Sep-30 06:33N 39°58' W 071°19'1 1.4
2014-Sep-30 05:32N 39°58' W 071°17'1 0.5
2014-Sep-30 04:26N 39°58' W 071°18'1 0.6
2014-Sep-30 03:32N 39°58' W 071°18'0 0.5
2014-Sep-30 02:32N 39°58' W 071°18'1 0.8
2014-Sep-30 01:26N 39°59' W 071°17'1 0.8
2014-Sep-30 00:29N 39°59' W 071°18'1 0.7
2014-Sep-29 23:32N 39°58' W 071°19'0 0.4
2014-Sep-29 22:31N 39°59' W 071°19'1312.9
2014-Sep-29 21:29N 40°11' W 071°25'2526.9
2014-Sep-29 20:33N 40°35' W 071°37'2726.6
2014-Sep-29 19:33N 40°60' W 071°49'2625.7
2014-Sep-29 18:33N 41°19' W 072°11'  
2014-Sep-25 00:29N 41°20' W 072°11'  

Dump ship's entire track history